Bluebell, Utah
Current Conditions -  °F | °C
As of 12:53 AM on Thursday 27 Nov 2014 (Local Time) from KVEL Reporting Station
Clear Clear  
Wind Chill: -4°   Ceiling: Unl
Heat Index: -1°   Visibility: 10mi
Dew Point: -6°   Wind: 5mph
Humidity: 72%   Direction: 280°W
Pressure: 30.4"   Gusts: NA
Location:  40.36°N, 110.22°W
Report Text: KVEL 270753Z AUTO 28004KT 10SM CLR M01/M06 A3040 RMK AO2 SLP294 T10111056
Loading
Personal Weather Stations






























Interactive Weather Map New forecast layout! Learn more

10-Day Weather Forecast

Advertisements
Track Severe Weather on mobile